createdAt,value
2017-12-19T00:01:00.992Z,17.00
2017-12-19T00:03:29.304Z,15.80
2017-12-19T00:05:57.169Z,16.63
2017-12-19T00:08:24.948Z,15.90
2017-12-19T00:10:53.573Z,17.00
2017-12-19T00:13:22.263Z,18.10
2017-12-19T00:15:51.609Z,16.83
2017-12-19T00:18:22.717Z,15.60
2017-12-19T00:20:51.376Z,17.70
2017-12-19T00:23:22.516Z,16.77
2017-12-19T00:25:57.301Z,18.43
2017-12-19T00:28:25.054Z,17.50
2017-12-19T00:30:53.036Z,16.70
2017-12-19T00:33:23.109Z,17.20
2017-12-19T00:35:51.516Z,18.67
2017-12-19T00:38:20.955Z,16.73
2017-12-19T00:40:49.271Z,18.47
2017-12-19T00:43:21.353Z,19.60
2017-12-19T00:45:51.564Z,19.80
2017-12-19T00:48:24.420Z,16.90
2017-12-19T00:50:53.512Z,17.63
2017-12-19T00:53:24.017Z,19.37
2017-12-19T00:55:52.065Z,18.30
2017-12-19T00:58:22.324Z,21.33
2017-12-19T01:00:50.000Z,20.33
2017-12-19T01:06:01.046Z,21.23
2017-12-19T01:08:29.031Z,20.40
2017-12-19T01:10:57.288Z,19.50
2017-12-19T01:13:25.366Z,21.30
2017-12-19T01:15:58.459Z,21.93
2017-12-19T01:18:28.252Z,21.17
2017-12-19T01:20:56.771Z,20.33
2017-12-19T01:23:25.054Z,19.10
2017-12-19T01:25:52.792Z,19.57
2017-12-19T01:28:22.332Z,18.63
2017-12-19T01:30:51.053Z,18.50
2017-12-19T01:33:21.028Z,18.93
2017-12-19T01:35:49.508Z,17.80
2017-12-19T01:38:17.208Z,18.90
2017-12-19T01:40:45.442Z,19.23
2017-12-19T01:43:15.395Z,20.27
2017-12-19T01:45:43.347Z,20.60
2017-12-19T01:48:13.238Z,20.87
2017-12-19T01:50:43.082Z,20.40
2017-12-19T01:53:11.264Z,20.13
2017-12-19T01:55:39.400Z,19.30
2017-12-19T01:58:07.472Z,19.80
2017-12-19T02:00:35.862Z,18.17
2017-12-19T02:03:03.974Z,19.70
2017-12-19T02:05:32.112Z,17.80
2017-12-19T02:07:59.809Z,18.50
2017-12-19T02:10:27.691Z,17.70
2017-12-19T02:12:57.387Z,17.73
2017-12-19T02:15:25.507Z,16.73
2017-12-19T02:17:56.425Z,16.93
2017-12-19T02:20:24.941Z,17.17
2017-12-19T02:22:54.835Z,17.50
2017-12-19T02:25:24.318Z,18.10
2017-12-19T02:27:52.232Z,17.00
2017-12-19T02:30:21.072Z,16.50
2017-12-19T02:32:56.141Z,17.60
2017-12-19T02:35:24.043Z,17.80
2017-12-19T02:37:53.707Z,16.90
2017-12-19T02:40:21.723Z,15.27
2017-12-19T02:43:02.845Z,16.90
2017-12-19T02:45:32.952Z,16.80
2017-12-19T02:48:02.541Z,16.87
2017-12-19T02:50:34.178Z,15.97
2017-12-19T02:53:02.464Z,17.33
2017-12-19T02:55:31.273Z,15.27
2017-12-19T02:57:59.155Z,15.43
2017-12-19T03:00:28.270Z,17.03
2017-12-19T03:02:58.372Z,17.13
2017-12-19T03:05:28.218Z,15.97
2017-12-19T03:07:59.063Z,16.80
2017-12-19T03:10:30.573Z,17.70
2017-12-19T03:15:32.676Z,18.20
2017-12-19T03:18:00.424Z,18.33
2017-12-19T03:20:29.249Z,19.17
2017-12-19T03:22:57.067Z,17.90
2017-12-19T03:25:24.816Z,16.03
2017-12-19T03:27:52.824Z,18.47
2017-12-19T03:30:24.251Z,18.53
2017-12-19T03:32:52.093Z,17.37
2017-12-19T03:35:19.801Z,18.73
2017-12-19T03:37:47.853Z,16.03
2017-12-19T03:40:15.625Z,16.40
2017-12-19T03:42:43.584Z,17.97
2017-12-19T03:45:12.932Z,17.03
2017-12-19T03:47:40.820Z,18.80
2017-12-19T03:50:08.396Z,16.50
2017-12-19T03:52:39.745Z,16.97
2017-12-19T03:55:10.741Z,17.63
2017-12-19T03:57:38.906Z,16.90
2017-12-19T04:00:06.621Z,16.43
2017-12-19T04:02:34.824Z,16.93
2017-12-19T04:05:02.789Z,15.70
2017-12-19T04:07:37.671Z,17.30
2017-12-19T04:10:08.660Z,18.47
2017-12-19T04:12:36.629Z,16.77
2017-12-19T04:15:05.344Z,16.63
2017-12-19T04:17:34.341Z,17.10
2017-12-19T04:22:48.719Z,15.03
2017-12-19T04:25:16.609Z,15.43
2017-12-19T04:27:44.675Z,17.40
2017-12-19T04:30:13.964Z,16.80
2017-12-19T04:32:42.039Z,16.07
2017-12-19T04:35:10.369Z,17.23
2017-12-19T04:37:40.236Z,15.60
2017-12-19T04:40:09.216Z,17.10
2017-12-19T04:42:42.716Z,15.53
2017-12-19T04:45:11.751Z,15.90
2017-12-19T04:47:40.664Z,17.03
2017-12-19T04:50:08.589Z,16.80
2017-12-19T04:52:37.650Z,16.00
2017-12-19T04:55:07.305Z,16.50
2017-12-19T04:57:35.546Z,17.50
2017-12-19T05:00:03.444Z,17.23
2017-12-19T05:02:31.194Z,17.07
2017-12-19T05:07:39.550Z,14.87
2017-12-19T05:12:41.788Z,18.33
2017-12-19T05:15:09.362Z,15.93
2017-12-19T05:17:39.231Z,14.67
2017-12-19T05:20:08.745Z,16.63
2017-12-19T05:22:40.897Z,15.80
2017-12-19T05:25:09.310Z,17.00
2017-12-19T05:27:44.869Z,16.40
2017-12-19T05:30:16.064Z,17.30
2017-12-19T05:32:45.941Z,16.93
2017-12-19T05:35:17.448Z,15.70
2017-12-19T05:37:52.856Z,17.70
2017-12-19T05:40:20.747Z,16.50
2017-12-19T05:42:50.189Z,18.00
2017-12-19T05:45:19.624Z,16.93
2017-12-19T05:47:48.701Z,18.00
2017-12-19T05:50:16.662Z,17.00
2017-12-19T05:52:44.759Z,15.87
2017-12-19T05:55:21.460Z,16.60
2017-12-19T05:57:50.726Z,16.90
2017-12-19T06:05:37.474Z,16.50
2017-12-19T06:08:06.189Z,17.87
2017-12-19T06:10:39.943Z,16.63
2017-12-19T06:13:12.309Z,15.73
2017-12-19T06:15:43.925Z,16.50
2017-12-19T06:18:12.217Z,16.80
2017-12-19T06:20:42.041Z,16.10
2017-12-19T06:23:11.320Z,16.60
2017-12-19T06:25:41.427Z,17.10
2017-12-19T06:28:13.579Z,16.70
2017-12-19T06:30:47.094Z,15.27
2017-12-19T06:33:15.569Z,16.33
2017-12-19T06:35:43.666Z,15.53
2017-12-19T06:38:12.388Z,18.53
2017-12-19T06:40:41.376Z,16.83
2017-12-19T06:43:09.003Z,18.37
2017-12-19T06:45:39.730Z,17.47
2017-12-19T06:48:07.731Z,14.67
2017-12-19T06:50:38.357Z,17.00
2017-12-19T06:53:06.131Z,17.17
2017-12-19T06:55:35.957Z,16.17
2017-12-19T06:58:04.098Z,17.23
2017-12-19T07:00:35.953Z,17.97
2017-12-19T07:03:03.817Z,16.70
2017-12-19T07:05:31.587Z,17.17
2017-12-19T07:08:00.099Z,16.20
2017-12-19T07:10:28.637Z,16.73
2017-12-19T07:12:57.372Z,16.00
2017-12-19T07:15:25.442Z,15.40
2017-12-19T07:17:53.347Z,14.97
2017-12-19T07:20:21.462Z,15.77
2017-12-19T07:22:49.885Z,16.67
2017-12-19T07:25:19.111Z,16.47
2017-12-19T07:27:47.344Z,18.20
2017-12-19T07:30:15.663Z,18.90
2017-12-19T07:32:45.006Z,16.70
2017-12-19T07:37:47.935Z,16.90
2017-12-19T07:40:16.420Z,17.03
2017-12-19T07:42:44.742Z,16.90
2017-12-19T07:45:13.097Z,17.50
2017-12-19T07:47:41.277Z,15.90
2017-12-19T07:50:10.711Z,18.20
2017-12-19T07:52:38.895Z,16.87
2017-12-19T07:55:07.258Z,18.50
2017-12-19T07:57:35.572Z,16.57
2017-12-19T08:00:03.714Z,16.67
2017-12-19T08:02:31.841Z,16.37
2017-12-19T08:05:00.295Z,17.17
2017-12-19T08:07:28.588Z,17.97
2017-12-19T08:09:57.054Z,17.63
2017-12-19T08:12:25.513Z,18.67
2017-12-19T08:14:53.532Z,16.60
2017-12-19T08:17:21.476Z,15.67
2017-12-19T08:19:49.426Z,15.60
2017-12-19T08:22:17.376Z,14.50
2017-12-19T08:24:45.486Z,14.47
2017-12-19T08:27:13.467Z,16.80
2017-12-19T08:29:41.676Z,15.40
2017-12-19T08:32:10.401Z,16.83
2017-12-19T08:34:38.288Z,15.67
2017-12-19T08:37:06.530Z,16.23
2017-12-19T08:39:34.662Z,16.83
2017-12-19T08:42:02.822Z,17.43
2017-12-19T08:44:30.844Z,16.23
2017-12-19T08:46:58.859Z,15.17
2017-12-19T08:49:26.693Z,16.97
2017-12-19T08:51:54.270Z,17.87
2017-12-19T08:54:21.859Z,18.10
2017-12-19T08:56:49.526Z,19.17
2017-12-19T08:59:17.240Z,17.10
2017-12-19T09:01:44.895Z,17.10
2017-12-19T09:04:12.521Z,16.73
2017-12-19T09:06:40.251Z,15.93
2017-12-19T09:09:08.031Z,15.43
2017-12-19T09:11:35.693Z,15.40
2017-12-19T09:14:03.288Z,15.83
2017-12-19T09:16:30.913Z,16.00
2017-12-19T09:18:58.524Z,16.27
2017-12-19T09:21:26.121Z,15.90
2017-12-19T09:23:53.886Z,16.17
2017-12-19T09:26:22.528Z,15.10
2017-12-19T09:28:52.111Z,15.10
2017-12-19T09:31:20.040Z,17.07
2017-12-19T09:33:47.793Z,16.63
2017-12-19T09:36:15.392Z,15.17
2017-12-19T09:38:43.073Z,14.73
2017-12-19T09:41:10.930Z,15.80
2017-12-19T09:43:38.662Z,13.13
2017-12-19T09:46:08.354Z,15.30
2017-12-19T09:48:35.951Z,15.73
2017-12-19T09:51:03.783Z,15.77
2017-12-19T09:53:31.432Z,15.60
2017-12-19T09:55:59.303Z,15.07
2017-12-19T09:58:27.651Z,12.77
2017-12-19T10:00:55.333Z,11.53
2017-12-19T10:03:23.067Z,12.07
2017-12-19T10:05:51.783Z,13.03
2017-12-19T10:08:19.356Z,14.40
2017-12-19T10:10:47.064Z,13.33
2017-12-19T10:13:14.694Z,14.20
2017-12-19T10:15:42.519Z,16.13
2017-12-19T10:18:11.401Z,15.93
2017-12-19T10:20:39.036Z,17.97
2017-12-19T10:23:06.815Z,17.10
2017-12-19T10:25:34.607Z,16.73
2017-12-19T10:28:02.418Z,16.93
2017-12-19T10:30:30.047Z,15.53
2017-12-19T10:32:57.641Z,16.03
2017-12-19T10:35:25.238Z,14.37
2017-12-19T10:37:52.947Z,17.47
2017-12-19T10:40:22.704Z,17.30
2017-12-19T10:42:50.504Z,15.60
2017-12-19T10:45:18.301Z,15.27
2017-12-19T10:47:46.961Z,16.70
2017-12-19T10:50:14.722Z,14.40
2017-12-19T10:52:42.347Z,15.83
2017-12-19T10:55:10.107Z,14.73
2017-12-19T10:57:37.894Z,16.30
2017-12-19T11:00:05.443Z,14.20
2017-12-19T11:02:33.152Z,15.53
2017-12-19T11:05:00.861Z,14.83
2017-12-19T11:07:28.537Z,16.40
2017-12-19T11:09:56.357Z,16.00
2017-12-19T11:12:24.103Z,16.27
2017-12-19T11:14:51.904Z,14.70
2017-12-19T11:17:19.797Z,15.37
2017-12-19T11:19:47.426Z,14.90
2017-12-19T11:22:15.186Z,14.67
2017-12-19T11:24:42.981Z,16.10
2017-12-19T11:27:10.918Z,14.20
2017-12-19T11:29:38.567Z,15.60
2017-12-19T11:32:08.937Z,16.10
2017-12-19T11:34:36.573Z,14.30
2017-12-19T11:37:04.366Z,14.30
2017-12-19T11:39:32.019Z,14.83
2017-12-19T11:41:59.756Z,14.73
2017-12-19T11:44:27.323Z,13.67
2017-12-19T11:46:55.059Z,13.87
2017-12-19T11:49:23.168Z,13.87
2017-12-19T11:51:50.939Z,14.97
2017-12-19T11:54:18.653Z,13.57
2017-12-19T11:56:46.405Z,14.10
2017-12-19T11:59:14.081Z,14.17
2017-12-19T12:01:42.983Z,14.70
2017-12-19T12:04:10.562Z,16.03
2017-12-19T12:06:38.442Z,15.07
2017-12-19T12:09:06.056Z,13.97
2017-12-19T12:11:33.650Z,15.60
2017-12-19T12:14:01.327Z,15.47
2017-12-19T12:16:29.126Z,14.43
2017-12-19T12:18:57.057Z,14.27
2017-12-19T12:21:24.821Z,14.50
2017-12-19T12:23:52.677Z,13.07
2017-12-19T12:26:20.441Z,9.97
2017-12-19T12:28:48.142Z,11.07
2017-12-19T12:31:15.773Z,10.83
2017-12-19T12:33:43.415Z,10.07
2017-12-19T12:36:11.155Z,10.00
2017-12-19T12:38:39.986Z,9.87
2017-12-19T12:41:08.896Z,9.07
2017-12-19T12:43:36.403Z,9.73
2017-12-19T12:46:05.146Z,8.97
2017-12-19T12:48:33.685Z,8.37
2017-12-19T12:51:01.326Z,9.10
2017-12-19T12:53:29.146Z,8.63
2017-12-19T12:55:56.723Z,8.50
2017-12-19T12:58:24.375Z,10.17
2017-12-19T13:00:51.998Z,10.27
2017-12-19T13:03:19.786Z,11.77
2017-12-19T13:05:47.484Z,11.40
2017-12-19T13:08:15.163Z,10.80
2017-12-19T13:10:43.106Z,11.80
2017-12-19T13:13:10.980Z,9.60
2017-12-19T13:15:39.608Z,11.63
2017-12-19T13:20:47.919Z,11.90
2017-12-19T13:23:15.903Z,13.60
2017-12-19T13:25:44.025Z,12.00
2017-12-19T13:28:11.848Z,13.50
2017-12-19T13:30:39.548Z,14.40
2017-12-19T13:33:07.357Z,12.90
2017-12-19T13:35:35.192Z,12.70
2017-12-19T13:38:02.984Z,13.13
2017-12-19T13:40:30.639Z,13.90
2017-12-19T13:42:58.276Z,13.07
2017-12-19T13:45:26.238Z,12.50
2017-12-19T13:47:54.072Z,15.27
2017-12-19T13:50:21.732Z,13.83
2017-12-19T13:52:49.492Z,11.90
2017-12-19T13:55:17.320Z,17.17
2017-12-19T13:57:45.180Z,41.70
2017-12-19T14:02:46.760Z,14.73
2017-12-19T14:05:14.530Z,14.23
2017-12-19T14:07:42.267Z,21.93
2017-12-19T14:10:10.735Z,14.20
2017-12-19T14:12:39.161Z,12.80
2017-12-19T14:15:07.631Z,10.27
2017-12-19T14:17:36.111Z,10.93
2017-12-19T14:20:04.630Z,9.57
2017-12-19T14:22:33.929Z,8.97
2017-12-19T14:25:02.557Z,10.20
2017-12-19T14:27:30.736Z,10.07
2017-12-19T14:29:59.135Z,12.13
2017-12-19T14:32:27.521Z,10.87
2017-12-19T14:34:57.161Z,9.90
2017-12-19T14:37:25.661Z,11.87
2017-12-19T14:39:54.994Z,12.13
2017-12-19T14:42:23.314Z,10.77
2017-12-19T14:44:51.752Z,10.63
2017-12-19T14:47:20.050Z,11.00
2017-12-19T14:49:48.569Z,10.67
2017-12-19T14:52:16.679Z,10.97
2017-12-19T14:54:45.219Z,10.83
2017-12-19T14:57:13.674Z,12.30
2017-12-19T14:59:42.836Z,9.93
2017-12-19T15:02:11.147Z,11.67
2017-12-19T15:04:40.264Z,12.30
2017-12-19T15:07:09.071Z,11.77
2017-12-19T15:09:37.195Z,11.90
2017-12-19T15:12:05.455Z,11.43
2017-12-19T15:14:33.950Z,13.03
2017-12-19T15:17:03.378Z,12.50
2017-12-19T15:19:31.814Z,11.50
2017-12-19T15:22:00.154Z,15.17
2017-12-19T15:24:30.368Z,12.20
2017-12-19T15:26:59.776Z,11.60
2017-12-19T15:29:28.038Z,13.77
2017-12-19T15:31:56.867Z,13.50
2017-12-19T15:34:25.591Z,14.37
2017-12-19T15:36:54.522Z,13.90
2017-12-19T15:39:22.786Z,13.37
2017-12-19T15:41:51.184Z,12.73
2017-12-19T15:44:20.293Z,13.20
2017-12-19T15:46:48.622Z,12.23
2017-12-19T15:49:16.944Z,14.30
2017-12-19T15:51:45.477Z,13.97
2017-12-19T15:54:15.034Z,14.30
2017-12-19T15:56:43.470Z,14.23
2017-12-19T15:59:12.480Z,14.97
2017-12-19T16:01:40.824Z,13.50
2017-12-19T16:04:10.441Z,13.27
2017-12-19T16:06:38.776Z,13.53
2017-12-19T16:09:06.845Z,14.23
2017-12-19T16:11:35.117Z,15.10
2017-12-19T16:14:03.632Z,12.73
2017-12-19T16:16:31.894Z,13.57
2017-12-19T16:19:00.557Z,12.53
2017-12-19T16:21:29.033Z,13.20
2017-12-19T16:23:57.889Z,12.60
2017-12-19T16:26:26.259Z,11.80
2017-12-19T16:28:54.475Z,12.07
2017-12-19T16:31:23.361Z,13.27
2017-12-19T16:33:53.386Z,11.83
2017-12-19T16:36:21.855Z,12.47
2017-12-19T16:38:50.224Z,13.30
2017-12-19T16:41:18.937Z,13.10
2017-12-19T16:43:47.105Z,14.67
2017-12-19T16:46:15.166Z,13.23
2017-12-19T16:48:43.515Z,14.77
2017-12-19T16:51:11.881Z,14.23
2017-12-19T16:53:41.295Z,13.60
2017-12-19T16:56:09.583Z,12.20
2017-12-19T16:58:37.876Z,12.90
2017-12-19T17:01:10.246Z,13.67
2017-12-19T17:03:38.690Z,13.57
2017-12-19T17:06:07.021Z,12.57
2017-12-19T17:08:35.420Z,13.53
2017-12-19T17:11:03.808Z,14.20
2017-12-19T17:13:32.917Z,13.70
2017-12-19T17:16:01.313Z,15.50
2017-12-19T17:18:31.407Z,13.23
2017-12-19T17:21:00.525Z,13.27
2017-12-19T17:23:29.980Z,14.60
2017-12-19T17:25:58.224Z,14.43
2017-12-19T17:28:26.501Z,14.50
2017-12-19T17:30:54.946Z,12.33
2017-12-19T17:33:23.308Z,15.30
2017-12-19T17:35:51.658Z,13.60
2017-12-19T17:38:19.861Z,13.80
2017-12-19T17:40:48.847Z,12.70
2017-12-19T17:43:16.972Z,14.00
2017-12-19T17:45:46.578Z,15.23
2017-12-19T17:48:15.631Z,13.77
2017-12-19T17:50:45.178Z,13.70
2017-12-19T17:53:13.526Z,13.97
2017-12-19T17:55:41.998Z,15.47
2017-12-19T17:58:11.244Z,15.33
2017-12-19T18:00:40.478Z,16.43
2017-12-19T18:03:08.915Z,14.47
2017-12-19T18:05:37.891Z,15.63
2017-12-19T18:08:06.175Z,16.53
2017-12-19T18:10:34.276Z,18.37
2017-12-19T18:13:02.465Z,16.83
2017-12-19T18:15:30.768Z,16.83
2017-12-19T18:17:59.187Z,17.57
2017-12-19T18:20:28.681Z,15.07
2017-12-19T18:22:57.553Z,14.33
2017-12-19T18:25:25.903Z,13.87
2017-12-19T18:27:54.276Z,14.63
2017-12-19T18:30:22.399Z,15.27
2017-12-19T18:32:50.722Z,16.67
2017-12-19T18:35:19.176Z,16.50
2017-12-19T18:37:47.550Z,16.40
2017-12-19T18:40:16.156Z,16.17
2017-12-19T18:42:44.549Z,15.73
2017-12-19T18:45:13.037Z,16.43
2017-12-19T18:47:41.451Z,15.20
2017-12-19T18:50:10.866Z,14.27
2017-12-19T18:52:40.053Z,13.17
2017-12-19T18:55:09.101Z,14.90
2017-12-19T18:57:37.210Z,13.60
2017-12-19T19:00:05.765Z,14.90
2017-12-19T19:02:34.231Z,14.70
2017-12-19T19:05:03.577Z,14.50
2017-12-19T19:07:31.904Z,14.70
2017-12-19T19:10:00.243Z,15.90
2017-12-19T19:12:28.651Z,16.27
2017-12-19T19:14:57.615Z,16.30
2017-12-19T19:17:25.671Z,15.23
2017-12-19T19:19:54.118Z,15.03
2017-12-19T19:22:22.419Z,15.43
2017-12-19T19:24:51.292Z,14.40
2017-12-19T19:27:19.789Z,15.30
2017-12-19T19:29:47.813Z,15.27
2017-12-19T19:32:16.142Z,13.40
2017-12-19T19:34:44.732Z,14.00
2017-12-19T19:37:12.966Z,14.70
2017-12-19T19:39:41.548Z,12.80
2017-12-19T19:42:09.974Z,14.33
2017-12-19T19:44:38.168Z,13.13
2017-12-19T19:47:06.347Z,12.70
2017-12-19T19:49:34.999Z,13.93
2017-12-19T19:52:03.472Z,14.70
2017-12-19T19:54:32.890Z,13.73
2017-12-19T19:57:01.074Z,13.47
2017-12-19T19:59:29.329Z,10.97
2017-12-19T20:01:58.062Z,14.83
2017-12-19T20:04:26.534Z,12.40
2017-12-19T20:06:55.277Z,13.07
2017-12-19T20:09:24.390Z,10.10
2017-12-19T20:11:52.651Z,12.70
2017-12-19T20:14:20.922Z,12.07
2017-12-19T20:16:49.254Z,14.13
2017-12-19T20:19:17.914Z,12.57
2017-12-19T20:21:47.231Z,11.70
2017-12-19T20:24:15.876Z,11.17
2017-12-19T20:26:44.410Z,10.70
2017-12-19T20:29:12.929Z,12.73
2017-12-19T20:31:41.638Z,16.00
2017-12-19T20:34:10.699Z,14.87
2017-12-19T20:36:39.926Z,15.63
2017-12-19T20:39:08.061Z,12.43
2017-12-19T20:41:36.294Z,14.20
2017-12-19T20:44:04.514Z,13.70
2017-12-19T20:46:32.982Z,13.40
2017-12-19T20:49:01.134Z,12.67
2017-12-19T20:51:29.561Z,11.97
2017-12-19T20:53:57.813Z,12.00
2017-12-19T20:56:27.302Z,12.53
2017-12-19T20:58:55.954Z,11.33
2017-12-19T21:01:24.442Z,11.90
2017-12-19T21:03:53.309Z,11.20
2017-12-19T21:06:23.124Z,11.30
2017-12-19T21:08:52.303Z,10.77
2017-12-19T21:11:21.488Z,13.27
2017-12-19T21:13:52.467Z,10.13
2017-12-19T21:16:20.240Z,11.13
2017-12-19T21:18:48.957Z,11.80
2017-12-19T21:21:16.630Z,10.93
2017-12-19T21:23:44.177Z,12.67
2017-12-19T21:26:11.647Z,13.03
2017-12-19T21:28:39.112Z,11.87
2017-12-19T21:31:06.680Z,12.67
2017-12-19T21:33:34.130Z,11.53
2017-12-19T21:36:01.636Z,11.67
2017-12-19T21:38:29.112Z,11.47
2017-12-19T21:40:56.662Z,13.63
2017-12-19T21:43:24.208Z,11.03
2017-12-19T21:45:51.679Z,11.70
2017-12-19T21:48:19.142Z,11.27
2017-12-19T21:50:46.648Z,12.60
2017-12-19T21:53:14.117Z,12.17
2017-12-19T21:55:41.575Z,13.20
2017-12-19T21:58:09.048Z,15.50
2017-12-19T22:00:36.610Z,12.90
2017-12-19T22:03:04.094Z,14.20
2017-12-19T22:05:31.551Z,15.83
2017-12-19T22:07:59.080Z,15.77
2017-12-19T22:10:26.536Z,15.60
2017-12-19T22:12:54.025Z,17.10
2017-12-19T22:15:21.495Z,18.20
2017-12-19T22:17:48.979Z,14.60
2017-12-19T22:20:16.456Z,16.60
2017-12-19T22:22:43.938Z,16.67
2017-12-19T22:25:11.422Z,15.87
2017-12-19T22:27:38.901Z,16.20
2017-12-19T22:30:06.393Z,19.13
2017-12-19T22:32:33.869Z,15.37
2017-12-19T22:35:01.329Z,16.90
2017-12-19T22:37:28.878Z,17.83
2017-12-19T22:39:56.340Z,18.37
2017-12-19T22:42:23.882Z,19.07
2017-12-19T22:44:51.370Z,18.53
2017-12-19T22:47:18.830Z,17.83
2017-12-19T22:49:46.312Z,16.30
2017-12-19T22:52:13.780Z,17.30
2017-12-19T22:54:41.255Z,16.70
2017-12-19T22:57:08.724Z,14.60
2017-12-19T22:59:36.219Z,15.60
2017-12-19T23:02:03.749Z,15.17
2017-12-19T23:04:31.219Z,14.70
2017-12-19T23:06:58.668Z,16.17
2017-12-19T23:09:26.144Z,14.90
2017-12-19T23:11:53.613Z,15.30
2017-12-19T23:14:21.133Z,14.53
2017-12-19T23:16:48.599Z,15.03
2017-12-19T23:19:16.073Z,14.37
2017-12-19T23:21:43.554Z,14.20
2017-12-19T23:24:11.012Z,15.03
2017-12-19T23:26:38.509Z,13.50
2017-12-19T23:29:05.970Z,13.57
2017-12-19T23:31:33.450Z,11.83
2017-12-19T23:34:00.904Z,13.10
2017-12-19T23:36:28.392Z,11.40
2017-12-19T23:38:55.843Z,12.60
2017-12-19T23:41:23.311Z,13.57
2017-12-19T23:43:50.807Z,14.07
2017-12-19T23:46:18.294Z,13.27
2017-12-19T23:48:45.759Z,13.37
2017-12-19T23:51:13.242Z,12.37
2017-12-19T23:53:40.692Z,10.90
2017-12-19T23:56:08.190Z,11.17
2017-12-19T23:58:35.644Z,10.90
